sensor_id;sensor_type;location;lat;lon;timestamp;temperature;humidity
19174;DHT22;9719;49.322;8.536;2023-03-03T00:02:29;2.20;91.70
19174;DHT22;9719;49.322;8.536;2023-03-03T00:07:32;2.20;91.80
19174;DHT22;9719;49.322;8.536;2023-03-03T00:12:34;2.20;92.30
19174;DHT22;9719;49.322;8.536;2023-03-03T00:17:44;2.10;92.10
19174;DHT22;9719;49.322;8.536;2023-03-03T00:22:47;2.00;91.90
19174;DHT22;9719;49.322;8.536;2023-03-03T00:27:48;1.90;92.30
19174;DHT22;9719;49.322;8.536;2023-03-03T00:32:51;1.90;93.20
19174;DHT22;9719;49.322;8.536;2023-03-03T00:37:56;1.80;92.60
19174;DHT22;9719;49.322;8.536;2023-03-03T00:42:59;1.70;92.40
19174;DHT22;9719;49.322;8.536;2023-03-03T00:48:14;1.60;92.70
19174;DHT22;9719;49.322;8.536;2023-03-03T00:53:19;1.40;92.70
19174;DHT22;9719;49.322;8.536;2023-03-03T00:58:22;1.30;93.00
19174;DHT22;9719;49.322;8.536;2023-03-03T01:03:25;1.20;92.70
19174;DHT22;9719;49.322;8.536;2023-03-03T01:08:28;1.10;92.90
19174;DHT22;9719;49.322;8.536;2023-03-03T01:13:31;1.00;93.50
19174;DHT22;9719;49.322;8.536;2023-03-03T01:18:34;0.90;93.60
19174;DHT22;9719;49.322;8.536;2023-03-03T01:23:38;0.80;93.60
19174;DHT22;9719;49.322;8.536;2023-03-03T01:28:40;0.80;93.20
19174;DHT22;9719;49.322;8.536;2023-03-03T01:33:41;0.60;93.80
19174;DHT22;9719;49.322;8.536;2023-03-03T01:38:44;0.60;93.90
19174;DHT22;9719;49.322;8.536;2023-03-03T01:43:48;0.50;93.80
19174;DHT22;9719;49.322;8.536;2023-03-03T01:48:51;0.40;93.60
19174;DHT22;9719;49.322;8.536;2023-03-03T01:53:57;0.30;94.50
19174;DHT22;9719;49.322;8.536;2023-03-03T01:59:02;0.30;94.10
19174;DHT22;9719;49.322;8.536;2023-03-03T02:04:05;0.20;94.30
19174;DHT22;9719;49.322;8.536;2023-03-03T02:09:12;0.10;94.40
19174;DHT22;9719;49.322;8.536;2023-03-03T02:14:14;0.10;94.80
19174;DHT22;9719;49.322;8.536;2023-03-03T02:19:21;0.00;94.90
19174;DHT22;9719;49.322;8.536;2023-03-03T02:24:30;-0.10;94.40
19174;DHT22;9719;49.322;8.536;2023-03-03T02:29:36;-0.20;94.40
19174;DHT22;9719;49.322;8.536;2023-03-03T02:34:45;-0.30;94.10
19174;DHT22;9719;49.322;8.536;2023-03-03T02:39:47;-0.40;94.20
19174;DHT22;9719;49.322;8.536;2023-03-03T02:44:50;-0.50;94.00
19174;DHT22;9719;49.322;8.536;2023-03-03T02:49:51;-0.60;94.20
19174;DHT22;9719;49.322;8.536;2023-03-03T02:54:53;-0.60;95.20
19174;DHT22;9719;49.322;8.536;2023-03-03T02:59:56;-0.60;94.60
19174;DHT22;9719;49.322;8.536;2023-03-03T03:04:58;-0.70;93.80
19174;DHT22;9719;49.322;8.536;2023-03-03T03:09:59;-0.80;94.00
19174;DHT22;9719;49.322;8.536;2023-03-03T03:15:03;-0.90;94.50
19174;DHT22;9719;49.322;8.536;2023-03-03T03:20:05;-0.80;95.30
19174;DHT22;9719;49.322;8.536;2023-03-03T03:25:08;-0.80;95.30
19174;DHT22;9719;49.322;8.536;2023-03-03T03:30:11;-0.80;95.50
19174;DHT22;9719;49.322;8.536;2023-03-03T03:35:14;-0.70;96.20
19174;DHT22;9719;49.322;8.536;2023-03-03T03:40:16;-0.70;95.80
19174;DHT22;9719;49.322;8.536;2023-03-03T03:45:20;-0.80;95.60
19174;DHT22;9719;49.322;8.536;2023-03-03T03:50:22;-0.80;96.10
19174;DHT22;9719;49.322;8.536;2023-03-03T03:55:24;-0.80;95.60
19174;DHT22;9719;49.322;8.536;2023-03-03T04:00:27;-0.80;96.40
19174;DHT22;9719;49.322;8.536;2023-03-03T04:05:28;-0.80;96.10
19174;DHT22;9719;49.322;8.536;2023-03-03T04:10:30;-0.80;95.10
19174;DHT22;9719;49.322;8.536;2023-03-03T04:15:33;-0.80;96.40
19174;DHT22;9719;49.322;8.536;2023-03-03T04:20:35;-0.80;95.40
19174;DHT22;9719;49.322;8.536;2023-03-03T04:25:36;-0.90;96.10
19174;DHT22;9719;49.322;8.536;2023-03-03T04:30:39;-0.90;95.00
19174;DHT22;9719;49.322;8.536;2023-03-03T04:35:41;-1.00;95.70
19174;DHT22;9719;49.322;8.536;2023-03-03T04:40:43;-1.10;95.30
19174;DHT22;9719;49.322;8.536;2023-03-03T04:45:46;-1.10;97.70
19174;DHT22;9719;49.322;8.536;2023-03-03T04:50:47;-1.00;99.20
19174;DHT22;9719;49.322;8.536;2023-03-03T04:55:49;-0.90;98.60
19174;DHT22;9719;49.322;8.536;2023-03-03T05:00:55;-1.00;97.10
19174;DHT22;9719;49.322;8.536;2023-03-03T05:05:57;-1.10;97.70
19174;DHT22;9719;49.322;8.536;2023-03-03T05:10:58;-1.20;97.40
19174;DHT22;9719;49.322;8.536;2023-03-03T05:16:02;-1.30;97.10
19174;DHT22;9719;49.322;8.536;2023-03-03T05:21:05;-1.50;96.30
19174;DHT22;9719;49.322;8.536;2023-03-03T05:26:06;-1.50;96.90
19174;DHT22;9719;49.322;8.536;2023-03-03T05:31:09;-1.60;97.30
19174;DHT22;9719;49.322;8.536;2023-03-03T05:36:11;-1.60;97.90
19174;DHT22;9719;49.322;8.536;2023-03-03T05:41:12;-1.70;97.60
19174;DHT22;9719;49.322;8.536;2023-03-03T05:46:16;-1.70;96.80
19174;DHT22;9719;49.322;8.536;2023-03-03T05:51:17;-1.80;96.90
19174;DHT22;9719;49.322;8.536;2023-03-03T05:56:19;-1.90;96.60
19174;DHT22;9719;49.322;8.536;2023-03-03T06:01:22;-2.00;96.80
19174;DHT22;9719;49.322;8.536;2023-03-03T06:06:24;-2.10;95.90
19174;DHT22;9719;49.322;8.536;2023-03-03T06:11:26;-2.20;95.90
19174;DHT22;9719;49.322;8.536;2023-03-03T06:16:29;-2.30;95.60
19174;DHT22;9719;49.322;8.536;2023-03-03T06:21:30;-2.30;96.30
19174;DHT22;9719;49.322;8.536;2023-03-03T06:26:32;-2.20;96.30
19174;DHT22;9719;49.322;8.536;2023-03-03T06:31:35;-2.20;95.60
19174;DHT22;9719;49.322;8.536;2023-03-03T06:36:37;-2.10;97.20
19174;DHT22;9719;49.322;8.536;2023-03-03T06:41:39;-2.00;96.70
19174;DHT22;9719;49.322;8.536;2023-03-03T06:46:42;-1.70;98.10
19174;DHT22;9719;49.322;8.536;2023-03-03T06:51:43;-1.40;98.50
19174;DHT22;9719;49.322;8.536;2023-03-03T06:56:46;-1.00;99.10
19174;DHT22;9719;49.322;8.536;2023-03-03T07:01:51;-0.60;98.80
19174;DHT22;9719;49.322;8.536;2023-03-03T07:06:53;-0.30;99.40
19174;DHT22;9719;49.322;8.536;2023-03-03T07:11:59;0.10;98.90
19174;DHT22;9719;49.322;8.536;2023-03-03T07:17:08;0.40;98.70
19174;DHT22;9719;49.322;8.536;2023-03-03T07:22:14;0.60;99.30
19174;DHT22;9719;49.322;8.536;2023-03-03T07:27:20;0.90;99.10
19174;DHT22;9719;49.322;8.536;2023-03-03T07:32:27;1.20;98.70
19174;DHT22;9719;49.322;8.536;2023-03-03T07:37:35;1.40;98.70
19174;DHT22;9719;49.322;8.536;2023-03-03T07:42:39;1.60;97.90
19174;DHT22;9719;49.322;8.536;2023-03-03T07:47:42;1.80;98.10
19174;DHT22;9719;49.322;8.536;2023-03-03T07:52:51;3.00;97.20
19174;DHT22;9719;49.322;8.536;2023-03-03T07:58:05;3.00;96.70
19174;DHT22;9719;49.322;8.536;2023-03-03T08:03:18;3.10;97.00
19174;DHT22;9719;49.322;8.536;2023-03-03T08:08:27;3.20;97.20
19174;DHT22;9719;49.322;8.536;2023-03-03T08:13:36;3.40;97.10
19174;DHT22;9719;49.322;8.536;2023-03-03T08:18:42;3.60;97.20
19174;DHT22;9719;49.322;8.536;2023-03-03T08:23:45;3.70;97.40
19174;DHT22;9719;49.322;8.536;2023-03-03T08:28:49;4.00;97.00
19174;DHT22;9719;49.322;8.536;2023-03-03T08:33:52;4.20;96.80
19174;DHT22;9719;49.322;8.536;2023-03-03T08:38:53;4.50;96.70
19174;DHT22;9719;49.322;8.536;2023-03-03T08:43:56;4.70;96.70
19174;DHT22;9719;49.322;8.536;2023-03-03T08:48:59;5.00;96.40
19174;DHT22;9719;49.322;8.536;2023-03-03T08:54:00;5.20;96.20
19174;DHT22;9719;49.322;8.536;2023-03-03T08:59:02;5.50;95.90
19174;DHT22;9719;49.322;8.536;2023-03-03T09:04:05;5.70;95.60
19174;DHT22;9719;49.322;8.536;2023-03-03T09:09:07;6.00;95.10
19174;DHT22;9719;49.322;8.536;2023-03-03T09:14:11;6.20;94.60
19174;DHT22;9719;49.322;8.536;2023-03-03T09:19:22;6.50;94.20
19174;DHT22;9719;49.322;8.536;2023-03-03T09:24:26;6.90;93.70
19174;DHT22;9719;49.322;8.536;2023-03-03T09:29:29;7.20;93.10
19174;DHT22;9719;49.322;8.536;2023-03-03T09:34:39;7.70;92.60
19174;DHT22;9719;49.322;8.536;2023-03-03T09:39:49;10.10;94.10
19174;DHT22;9719;49.322;8.536;2023-03-03T09:50:42;17.10;81.00
19174;DHT22;9719;49.322;8.536;2023-03-03T09:55:52;19.60;71.30
19174;DHT22;9719;49.322;8.536;2023-03-03T10:01:01;21.40;64.10
19174;DHT22;9719;49.322;8.536;2023-03-03T10:06:14;23.00;58.20
19174;DHT22;9719;49.322;8.536;2023-03-03T10:11:23;24.50;53.00
19174;DHT22;9719;49.322;8.536;2023-03-03T10:16:37;25.60;49.40
19174;DHT22;9719;49.322;8.536;2023-03-03T10:21:47;26.60;45.40
19174;DHT22;9719;49.322;8.536;2023-03-03T10:27:01;27.40;42.80
19174;DHT22;9719;49.322;8.536;2023-03-03T10:32:25;28.30;39.70
19174;DHT22;9719;49.322;8.536;2023-03-03T10:37:34;28.90;37.70
19174;DHT22;9719;49.322;8.536;2023-03-03T10:42:54;29.10;36.30
19174;DHT22;9719;49.322;8.536;2023-03-03T10:48:14;29.80;34.50
19174;DHT22;9719;49.322;8.536;2023-03-03T10:53:26;30.50;32.80
19174;DHT22;9719;49.322;8.536;2023-03-03T10:58:48;31.10;32.00
19174;DHT22;9719;49.322;8.536;2023-03-03T11:09:50;31.60;29.80
19174;DHT22;9719;49.322;8.536;2023-03-03T11:15:08;32.60;29.00
19174;DHT22;9719;49.322;8.536;2023-03-03T11:20:26;32.80;27.90
19174;DHT22;9719;49.322;8.536;2023-03-03T11:25:35;33.60;27.30
19174;DHT22;9719;49.322;8.536;2023-03-03T11:30:48;33.60;26.70
19174;DHT22;9719;49.322;8.536;2023-03-03T11:36:04;34.50;27.10
19174;DHT22;9719;49.322;8.536;2023-03-03T11:41:15;35.10;26.00
19174;DHT22;9719;49.322;8.536;2023-03-03T11:46:23;35.50;25.60
19174;DHT22;9719;49.322;8.536;2023-03-03T11:51:33;35.50;25.40
19174;DHT22;9719;49.322;8.536;2023-03-03T11:56:41;36.30;24.90
19174;DHT22;9719;49.322;8.536;2023-03-03T12:01:48;36.00;24.20
19174;DHT22;9719;49.322;8.536;2023-03-03T12:07:06;36.40;24.10
19174;DHT22;9719;49.322;8.536;2023-03-03T12:12:14;38.10;23.30
19174;DHT22;9719;49.322;8.536;2023-03-03T12:17:27;39.40;22.90
19174;DHT22;9719;49.322;8.536;2023-03-03T12:22:40;40.50;22.10
19174;DHT22;9719;49.322;8.536;2023-03-03T12:27:48;41.40;21.80
19174;DHT22;9719;49.322;8.536;2023-03-03T12:33:04;41.70;21.20
19174;DHT22;9719;49.322;8.536;2023-03-03T12:38:15;41.90;20.90
19174;DHT22;9719;49.322;8.536;2023-03-03T12:43:30;42.10;20.60
19174;DHT22;9719;49.322;8.536;2023-03-03T12:48:38;42.50;20.40
19174;DHT22;9719;49.322;8.536;2023-03-03T12:53:51;42.40;20.40
19174;DHT22;9719;49.322;8.536;2023-03-03T12:59:04;42.10;19.30
19174;DHT22;9719;49.322;8.536;2023-03-03T13:04:15;42.20;19.80
19174;DHT22;9719;49.322;8.536;2023-03-03T13:09:32;42.50;20.10
19174;DHT22;9719;49.322;8.536;2023-03-03T13:14:46;42.00;19.70
19174;DHT22;9719;49.322;8.536;2023-03-03T13:19:55;42.20;19.80
19174;DHT22;9719;49.322;8.536;2023-03-03T13:25:02;41.90;19.30
19174;DHT22;9719;49.322;8.536;2023-03-03T13:30:15;40.50;19.80
19174;DHT22;9719;49.322;8.536;2023-03-03T13:35:31;40.80;19.80
19174;DHT22;9719;49.322;8.536;2023-03-03T13:40:40;39.00;20.10
19174;DHT22;9719;49.322;8.536;2023-03-03T13:45:52;38.00;20.70
19174;DHT22;9719;49.322;8.536;2023-03-03T13:50:58;37.30;20.70
19174;DHT22;9719;49.322;8.536;2023-03-03T13:56:12;37.30;21.10
19174;DHT22;9719;49.322;8.536;2023-03-03T14:01:21;36.50;21.20
19174;DHT22;9719;49.322;8.536;2023-03-03T14:06:25;36.40;21.40
19174;DHT22;9719;49.322;8.536;2023-03-03T14:11:29;33.80;21.90
19174;DHT22;9719;49.322;8.536;2023-03-03T14:16:49;30.20;23.80
19174;DHT22;9719;49.322;8.536;2023-03-03T14:22:01;26.30;27.20
19174;DHT22;9719;49.322;8.536;2023-03-03T14:27:21;23.60;28.50
19174;DHT22;9719;49.322;8.536;2023-03-03T14:32:26;21.40;32.00
19174;DHT22;9719;49.322;8.536;2023-03-03T14:37:41;19.70;33.40
19174;DHT22;9719;49.322;8.536;2023-03-03T14:42:48;18.20;37.00
19174;DHT22;9719;49.322;8.536;2023-03-03T14:47:55;17.20;38.10
19174;DHT22;9719;49.322;8.536;2023-03-03T14:53:12;16.30;39.80
19174;DHT22;9719;49.322;8.536;2023-03-03T14:58:30;15.70;41.90
19174;DHT22;9719;49.322;8.536;2023-03-03T15:03:35;15.10;42.90
19174;DHT22;9719;49.322;8.536;2023-03-03T15:08:40;14.60;43.50
19174;DHT22;9719;49.322;8.536;2023-03-03T15:13:42;14.30;44.20
19174;DHT22;9719;49.322;8.536;2023-03-03T15:24:30;13.60;47.40
19174;DHT22;9719;49.322;8.536;2023-03-03T15:29:37;13.40;46.60
19174;DHT22;9719;49.322;8.536;2023-03-03T15:34:45;13.20;46.90
19174;DHT22;9719;49.322;8.536;2023-03-03T15:39:51;13.10;47.30
19174;DHT22;9719;49.322;8.536;2023-03-03T15:45:03;13.00;47.70
19174;DHT22;9719;49.322;8.536;2023-03-03T15:50:30;12.90;50.00
19174;DHT22;9719;49.322;8.536;2023-03-03T15:55:46;12.80;49.30
19174;DHT22;9719;49.322;8.536;2023-03-03T16:00:57;12.70;49.50
19174;DHT22;9719;49.322;8.536;2023-03-03T16:06:09;12.40;49.70
19174;DHT22;9719;49.322;8.536;2023-03-03T16:11:16;12.20;50.20
19174;DHT22;9719;49.322;8.536;2023-03-03T16:16:28;12.00;50.60
19174;DHT22;9719;49.322;8.536;2023-03-03T16:21:49;11.70;51.10
19174;DHT22;9719;49.322;8.536;2023-03-03T16:26:55;11.50;51.60
19174;DHT22;9719;49.322;8.536;2023-03-03T16:32:03;11.20;52.00
19174;DHT22;9719;49.322;8.536;2023-03-03T16:37:13;10.90;52.70
19174;DHT22;9719;49.322;8.536;2023-03-03T16:42:22;10.50;53.30
19174;DHT22;9719;49.322;8.536;2023-03-03T16:47:37;10.20;53.80
19174;DHT22;9719;49.322;8.536;2023-03-03T16:52:47;9.80;54.60
19174;DHT22;9719;49.322;8.536;2023-03-03T16:57:58;9.50;55.20
19174;DHT22;9719;49.322;8.536;2023-03-03T17:03:19;9.20;55.70
19174;DHT22;9719;49.322;8.536;2023-03-03T17:08:36;8.80;56.10
19174;DHT22;9719;49.322;8.536;2023-03-03T17:13:55;8.50;57.60
19174;DHT22;9719;49.322;8.536;2023-03-03T17:19:11;8.20;57.60
19174;DHT22;9719;49.322;8.536;2023-03-03T17:24:21;7.80;58.00
19174;DHT22;9719;49.322;8.536;2023-03-03T17:29:38;7.50;58.70
19174;DHT22;9719;49.322;8.536;2023-03-03T17:35:04;7.30;59.50
19174;DHT22;9719;49.322;8.536;2023-03-03T17:40:20;7.10;59.20
19174;DHT22;9719;49.322;8.536;2023-03-03T17:45:27;6.90;60.00
19174;DHT22;9719;49.322;8.536;2023-03-03T17:56:17;6.70;60.90
19174;DHT22;9719;49.322;8.536;2023-03-03T18:01:29;6.60;61.60
19174;DHT22;9719;49.322;8.536;2023-03-03T18:07:04;6.50;61.30
19174;DHT22;9719;49.322;8.536;2023-03-03T18:12:17;6.40;61.90
19174;DHT22;9719;49.322;8.536;2023-03-03T18:17:34;6.20;62.40
19174;DHT22;9719;49.322;8.536;2023-03-03T18:22:41;6.20;63.30
19174;DHT22;9719;49.322;8.536;2023-03-03T18:27:45;6.10;63.50
19174;DHT22;9719;49.322;8.536;2023-03-03T18:33:01;5.90;63.30
19174;DHT22;9719;49.322;8.536;2023-03-03T18:38:23;5.80;64.00
19174;DHT22;9719;49.322;8.536;2023-03-03T18:43:51;5.70;64.10
19174;DHT22;9719;49.322;8.536;2023-03-03T18:48:56;5.50;64.80
19174;DHT22;9719;49.322;8.536;2023-03-03T18:54:00;5.40;64.50
19174;DHT22;9719;49.322;8.536;2023-03-03T18:59:08;5.20;65.00
19174;DHT22;9719;49.322;8.536;2023-03-03T19:04:21;5.10;65.60
19174;DHT22;9719;49.322;8.536;2023-03-03T19:09:43;5.10;66.30
19174;DHT22;9719;49.322;8.536;2023-03-03T19:14:47;5.00;66.60
19174;DHT22;9719;49.322;8.536;2023-03-03T19:19:59;4.90;66.60
19174;DHT22;9719;49.322;8.536;2023-03-03T19:25:17;4.90;66.90
19174;DHT22;9719;49.322;8.536;2023-03-03T19:30:38;4.80;66.90
19174;DHT22;9719;49.322;8.536;2023-03-03T19:35:55;4.80;67.20
19174;DHT22;9719;49.322;8.536;2023-03-03T19:41:02;4.60;67.40
19174;DHT22;9719;49.322;8.536;2023-03-03T19:46:46;4.50;67.80
19174;DHT22;9719;49.322;8.536;2023-03-03T19:51:56;4.40;68.60
19174;DHT22;9719;49.322;8.536;2023-03-03T19:57:04;4.30;68.80
19174;DHT22;9719;49.322;8.536;2023-03-03T20:02:30;4.20;68.80
19174;DHT22;9719;49.322;8.536;2023-03-03T20:07:40;4.10;69.30
19174;DHT22;9719;49.322;8.536;2023-03-03T20:12:54;4.00;69.20
19174;DHT22;9719;49.322;8.536;2023-03-03T20:23:49;3.70;70.40
19174;DHT22;9719;49.322;8.536;2023-03-03T20:29:09;3.60;71.10
19174;DHT22;9719;49.322;8.536;2023-03-03T20:34:19;3.50;72.00
19174;DHT22;9719;49.322;8.536;2023-03-03T20:39:37;3.50;72.10
19174;DHT22;9719;49.322;8.536;2023-03-03T20:44:57;3.40;72.40
19174;DHT22;9719;49.322;8.536;2023-03-03T20:50:10;3.30;72.60
19174;DHT22;9719;49.322;8.536;2023-03-03T20:55:20;3.10;73.30
19174;DHT22;9719;49.322;8.536;2023-03-03T21:00:28;3.10;73.70
19174;DHT22;9719;49.322;8.536;2023-03-03T21:05:33;3.00;74.30
19174;DHT22;9719;49.322;8.536;2023-03-03T21:10:36;2.90;74.70
19174;DHT22;9719;49.322;8.536;2023-03-03T21:15:38;2.90;75.80
19174;DHT22;9719;49.322;8.536;2023-03-03T21:20:41;2.80;76.70
19174;DHT22;9719;49.322;8.536;2023-03-03T21:25:49;2.80;75.20
19174;DHT22;9719;49.322;8.536;2023-03-03T21:31:10;2.60;75.50
19174;DHT22;9719;49.322;8.536;2023-03-03T21:36:15;2.40;75.90
19174;DHT22;9719;49.322;8.536;2023-03-03T21:41:18;2.20;76.00
19174;DHT22;9719;49.322;8.536;2023-03-03T21:46:21;2.10;77.00
19174;DHT22;9719;49.322;8.536;2023-03-03T21:51:24;2.00;78.10
19174;DHT22;9719;49.322;8.536;2023-03-03T21:56:28;1.90;79.10
19174;DHT22;9719;49.322;8.536;2023-03-03T22:01:29;2.00;79.90
19174;DHT22;9719;49.322;8.536;2023-03-03T22:06:32;2.00;80.40
19174;DHT22;9719;49.322;8.536;2023-03-03T22:11:34;2.10;80.70
19174;DHT22;9719;49.322;8.536;2023-03-03T22:16:36;2.10;81.00
19174;DHT22;9719;49.322;8.536;2023-03-03T22:21:39;2.10;81.40
19174;DHT22;9719;49.322;8.536;2023-03-03T22:26:41;2.20;82.00
19174;DHT22;9719;49.322;8.536;2023-03-03T22:31:42;2.10;81.80
19174;DHT22;9719;49.322;8.536;2023-03-03T22:36:45;2.10;82.10
19174;DHT22;9719;49.322;8.536;2023-03-03T22:41:47;2.00;82.60
19174;DHT22;9719;49.322;8.536;2023-03-03T22:46:49;2.00;83.30
19174;DHT22;9719;49.322;8.536;2023-03-03T22:51:52;1.90;84.20
19174;DHT22;9719;49.322;8.536;2023-03-03T22:56:53;1.90;84.00
19174;DHT22;9719;49.322;8.536;2023-03-03T23:01:55;1.80;84.80
19174;DHT22;9719;49.322;8.536;2023-03-03T23:06:58;1.80;85.50
19174;DHT22;9719;49.322;8.536;2023-03-03T23:12:00;1.70;85.60
19174;DHT22;9719;49.322;8.536;2023-03-03T23:17:01;1.60;86.30
19174;DHT22;9719;49.322;8.536;2023-03-03T23:22:04;1.50;86.40
19174;DHT22;9719;49.322;8.536;2023-03-03T23:27:06;1.40;87.60
19174;DHT22;9719;49.322;8.536;2023-03-03T23:32:08;1.40;89.20
19174;DHT22;9719;49.322;8.536;2023-03-03T23:37:11;1.40;89.30
19174;DHT22;9719;49.322;8.536;2023-03-03T23:42:12;1.40;89.70
19174;DHT22;9719;49.322;8.536;2023-03-03T23:47:14;1.40;90.30
19174;DHT22;9719;49.322;8.536;2023-03-03T23:52:17;1.50;90.80
19174;DHT22;9719;49.322;8.536;2023-03-03T23:57:19;1.50;91.10
